sensor_id;sensor_type;location;lat;lon;timestamp;temperature;humidity
54898;DHT22;40800;52.704;6.398;2022-09-16T00:00:23;11.50;99.90
54898;DHT22;40800;52.704;6.398;2022-09-16T00:02:53;11.70;99.90
54898;DHT22;40800;52.704;6.398;2022-09-16T00:05:19;11.80;99.90
54898;DHT22;40800;52.704;6.398;2022-09-16T00:07:45;12.60;99.90
54898;DHT22;40800;52.704;6.398;2022-09-16T00:10:11;11.40;99.90
54898;DHT22;40800;52.704;6.398;2022-09-16T00:12:37;11.40;99.90
54898;DHT22;40800;52.704;6.398;2022-09-16T00:15:04;11.70;99.90
54898;DHT22;40800;52.704;6.398;2022-09-16T00:17:30;11.60;99.90
54898;DHT22;40800;52.704;6.398;2022-09-16T00:19:56;11.70;99.90
54898;DHT22;40800;52.704;6.398;2022-09-16T00:22:22;11.60;99.90
54898;DHT22;40800;52.704;6.398;2022-09-16T00:24:48;11.70;99.90
54898;DHT22;40800;52.704;6.398;2022-09-16T00:27:14;11.50;99.90
54898;DHT22;40800;52.704;6.398;2022-09-16T00:29:39;11.80;99.90
54898;DHT22;40800;52.704;6.398;2022-09-16T00:32:05;11.90;99.90
54898;DHT22;40800;52.704;6.398;2022-09-16T00:34:31;11.80;99.90
54898;DHT22;40800;52.704;6.398;2022-09-16T00:36:56;11.50;99.90
54898;DHT22;40800;52.704;6.398;2022-09-16T00:39:22;11.90;99.90
54898;DHT22;40800;52.704;6.398;2022-09-16T00:41:48;11.50;99.90
54898;DHT22;40800;52.704;6.398;2022-09-16T00:44:52;11.80;99.90
54898;DHT22;40800;52.704;6.398;2022-09-16T00:47:30;11.70;99.90
54898;DHT22;40800;52.704;6.398;2022-09-16T00:50:03;11.70;99.90
54898;DHT22;40800;52.704;6.398;2022-09-16T00:52:31;11.60;99.90
54898;DHT22;40800;52.704;6.398;2022-09-16T00:54:59;11.60;99.90
54898;DHT22;40800;52.704;6.398;2022-09-16T00:57:26;11.60;99.90
54898;DHT22;40800;52.704;6.398;2022-09-16T00:59:53;11.80;99.90
54898;DHT22;40800;52.704;6.398;2022-09-16T01:02:21;11.70;99.90
54898;DHT22;40800;52.704;6.398;2022-09-16T01:04:55;11.70;99.90
54898;DHT22;40800;52.704;6.398;2022-09-16T01:07:36;11.60;99.90
54898;DHT22;40800;52.704;6.398;2022-09-16T01:10:04;11.60;99.90
54898;DHT22;40800;52.704;6.398;2022-09-16T01:12:31;11.70;99.90
54898;DHT22;40800;52.704;6.398;2022-09-16T01:14:58;11.50;99.90
54898;DHT22;40800;52.704;6.398;2022-09-16T01:17:50;11.50;99.90
54898;DHT22;40800;52.704;6.398;2022-09-16T01:26:28;11.40;99.90
54898;DHT22;40800;52.704;6.398;2022-09-16T01:37:51;11.40;99.90
54898;DHT22;40800;52.704;6.398;2022-09-16T01:43:06;11.40;99.90
54898;DHT22;40800;52.704;6.398;2022-09-16T01:45:39;11.60;99.90
54898;DHT22;40800;52.704;6.398;2022-09-16T01:51:01;11.40;99.90
54898;DHT22;40800;52.704;6.398;2022-09-16T01:53:47;11.40;99.90
54898;DHT22;40800;52.704;6.398;2022-09-16T01:56:26;11.60;99.90
54898;DHT22;40800;52.704;6.398;2022-09-16T02:01:34;11.60;99.90
54898;DHT22;40800;52.704;6.398;2022-09-16T02:04:16;11.50;99.90
54898;DHT22;40800;52.704;6.398;2022-09-16T02:06:44;11.30;99.90
54898;DHT22;40800;52.704;6.398;2022-09-16T02:09:20;11.50;99.90
54898;DHT22;40800;52.704;6.398;2022-09-16T02:11:48;11.30;99.90
54898;DHT22;40800;52.704;6.398;2022-09-16T02:14:19;11.40;99.90
54898;DHT22;40800;52.704;6.398;2022-09-16T02:16:52;11.30;99.90
54898;DHT22;40800;52.704;6.398;2022-09-16T02:19:23;11.50;99.90
54898;DHT22;40800;52.704;6.398;2022-09-16T02:21:53;11.30;99.90
54898;DHT22;40800;52.704;6.398;2022-09-16T02:24:21;11.50;99.90
54898;DHT22;40800;52.704;6.398;2022-09-16T02:26:55;11.30;99.90
54898;DHT22;40800;52.704;6.398;2022-09-16T02:29:26;11.60;99.90
54898;DHT22;40800;52.704;6.398;2022-09-16T02:31:56;11.30;99.90
54898;DHT22;40800;52.704;6.398;2022-09-16T02:34:36;11.60;99.90
54898;DHT22;40800;52.704;6.398;2022-09-16T02:37:11;11.30;99.90
54898;DHT22;40800;52.704;6.398;2022-09-16T02:39:39;11.20;99.90
54898;DHT22;40800;52.704;6.398;2022-09-16T02:42:06;11.10;99.90
54898;DHT22;40800;52.704;6.398;2022-09-16T02:44:32;11.30;99.90
54898;DHT22;40800;52.704;6.398;2022-09-16T02:50:11;11.20;99.90
54898;DHT22;40800;52.704;6.398;2022-09-16T02:52:52;11.00;99.90
54898;DHT22;40800;52.704;6.398;2022-09-16T02:55:37;11.10;99.90
54898;DHT22;40800;52.704;6.398;2022-09-16T02:58:05;11.10;99.90
54898;DHT22;40800;52.704;6.398;2022-09-16T03:00:33;11.00;99.90
54898;DHT22;40800;52.704;6.398;2022-09-16T03:03:00;10.90;99.90
54898;DHT22;40800;52.704;6.398;2022-09-16T03:05:28;10.90;99.90
54898;DHT22;40800;52.704;6.398;2022-09-16T03:07:54;10.80;99.90
54898;DHT22;40800;52.704;6.398;2022-09-16T03:10:22;10.80;99.90
54898;DHT22;40800;52.704;6.398;2022-09-16T03:15:57;10.90;99.90
54898;DHT22;40800;52.704;6.398;2022-09-16T03:24:25;10.90;99.90
54898;DHT22;40800;52.704;6.398;2022-09-16T03:27:03;10.90;99.90
54898;DHT22;40800;52.704;6.398;2022-09-16T03:29:41;10.80;99.90
54898;DHT22;40800;52.704;6.398;2022-09-16T03:32:14;10.80;99.90
54898;DHT22;40800;52.704;6.398;2022-09-16T03:35:01;10.80;99.90
54898;DHT22;40800;52.704;6.398;2022-09-16T03:37:31;10.90;99.90
54898;DHT22;40800;52.704;6.398;2022-09-16T03:40:09;11.00;99.90
54898;DHT22;40800;52.704;6.398;2022-09-16T03:42:41;10.70;99.90
54898;DHT22;40800;52.704;6.398;2022-09-16T03:45:12;10.80;99.90
54898;DHT22;40800;52.704;6.398;2022-09-16T03:47:38;10.90;99.90
54898;DHT22;40800;52.704;6.398;2022-09-16T03:50:05;10.90;99.90
54898;DHT22;40800;52.704;6.398;2022-09-16T03:52:30;10.70;99.90
54898;DHT22;40800;52.704;6.398;2022-09-16T03:54:56;10.70;99.90
54898;DHT22;40800;52.704;6.398;2022-09-16T03:57:21;10.80;99.90
54898;DHT22;40800;52.704;6.398;2022-09-16T03:59:47;10.70;99.90
54898;DHT22;40800;52.704;6.398;2022-09-16T04:02:13;10.70;99.90
54898;DHT22;40800;52.704;6.398;2022-09-16T04:04:38;10.50;99.90
54898;DHT22;40800;52.704;6.398;2022-09-16T04:07:04;10.70;99.90
54898;DHT22;40800;52.704;6.398;2022-09-16T04:09:30;10.60;99.90
54898;DHT22;40800;52.704;6.398;2022-09-16T04:11:55;10.40;99.90
54898;DHT22;40800;52.704;6.398;2022-09-16T04:14:21;10.70;99.90
54898;DHT22;40800;52.704;6.398;2022-09-16T04:16:46;10.70;99.90
54898;DHT22;40800;52.704;6.398;2022-09-16T04:19:13;10.60;99.90
54898;DHT22;40800;52.704;6.398;2022-09-16T04:21:39;10.50;99.90
54898;DHT22;40800;52.704;6.398;2022-09-16T04:24:05;10.60;99.90
54898;DHT22;40800;52.704;6.398;2022-09-16T04:26:30;10.50;99.90
54898;DHT22;40800;52.704;6.398;2022-09-16T04:28:56;10.40;99.90
54898;DHT22;40800;52.704;6.398;2022-09-16T04:31:22;10.40;99.90
54898;DHT22;40800;52.704;6.398;2022-09-16T04:33:47;10.40;99.90
54898;DHT22;40800;52.704;6.398;2022-09-16T04:36:16;10.30;99.90
54898;DHT22;40800;52.704;6.398;2022-09-16T04:38:43;10.40;99.90
54898;DHT22;40800;52.704;6.398;2022-09-16T04:41:11;10.40;99.90
54898;DHT22;40800;52.704;6.398;2022-09-16T04:43:37;10.20;99.90
54898;DHT22;40800;52.704;6.398;2022-09-16T04:46:04;11.80;99.90
54898;DHT22;40800;52.704;6.398;2022-09-16T04:48:31;10.10;99.90
54898;DHT22;40800;52.704;6.398;2022-09-16T04:51:05;10.20;99.90
54898;DHT22;40800;52.704;6.398;2022-09-16T04:53:32;10.10;99.90
54898;DHT22;40800;52.704;6.398;2022-09-16T04:58:50;10.20;99.90
54898;DHT22;40800;52.704;6.398;2022-09-16T05:01:20;10.00;99.90
54898;DHT22;40800;52.704;6.398;2022-09-16T05:03:48;10.20;99.90
54898;DHT22;40800;52.704;6.398;2022-09-16T05:06:37;10.30;99.90
54898;DHT22;40800;52.704;6.398;2022-09-16T05:09:02;10.30;99.90
54898;DHT22;40800;52.704;6.398;2022-09-16T05:11:31;10.30;99.90
54898;DHT22;40800;52.704;6.398;2022-09-16T05:13:59;10.30;99.90
54898;DHT22;40800;52.704;6.398;2022-09-16T05:16:25;10.30;99.90
54898;DHT22;40800;52.704;6.398;2022-09-16T05:18:54;10.40;99.90
54898;DHT22;40800;52.704;6.398;2022-09-16T05:21:21;10.30;99.90
54898;DHT22;40800;52.704;6.398;2022-09-16T05:23:47;10.30;99.90
54898;DHT22;40800;52.704;6.398;2022-09-16T05:26:16;10.20;99.90
54898;DHT22;40800;52.704;6.398;2022-09-16T05:28:42;10.40;99.90
54898;DHT22;40800;52.704;6.398;2022-09-16T05:31:17;10.40;99.90
54898;DHT22;40800;52.704;6.398;2022-09-16T05:33:46;10.20;99.90
54898;DHT22;40800;52.704;6.398;2022-09-16T05:36:16;10.40;99.90
54898;DHT22;40800;52.704;6.398;2022-09-16T05:38:42;10.40;99.90
54898;DHT22;40800;52.704;6.398;2022-09-16T05:41:08;10.20;99.90
54898;DHT22;40800;52.704;6.398;2022-09-16T05:43:35;10.20;99.90
54898;DHT22;40800;52.704;6.398;2022-09-16T05:46:01;10.30;99.90
54898;DHT22;40800;52.704;6.398;2022-09-16T05:48:28;10.20;99.90
54898;DHT22;40800;52.704;6.398;2022-09-16T05:50:58;10.20;99.90
54898;DHT22;40800;52.704;6.398;2022-09-16T05:53:25;10.20;99.90
54898;DHT22;40800;52.704;6.398;2022-09-16T05:55:57;10.30;99.90
54898;DHT22;40800;52.704;6.398;2022-09-16T05:58:25;10.50;99.90
54898;DHT22;40800;52.704;6.398;2022-09-16T06:00:51;10.50;99.90
54898;DHT22;40800;52.704;6.398;2022-09-16T06:03:17;10.60;99.90
54898;DHT22;40800;52.704;6.398;2022-09-16T06:05:42;10.50;99.90
54898;DHT22;40800;52.704;6.398;2022-09-16T06:08:08;10.50;99.90
54898;DHT22;40800;52.704;6.398;2022-09-16T06:10:40;10.60;99.90
54898;DHT22;40800;52.704;6.398;2022-09-16T06:13:06;10.50;99.90
54898;DHT22;40800;52.704;6.398;2022-09-16T06:15:32;10.70;99.90
54898;DHT22;40800;52.704;6.398;2022-09-16T06:18:00;10.70;99.90
54898;DHT22;40800;52.704;6.398;2022-09-16T06:20:25;11.80;99.90
54898;DHT22;40800;52.704;6.398;2022-09-16T06:22:51;10.90;99.90
54898;DHT22;40800;52.704;6.398;2022-09-16T06:25:17;10.80;99.90
54898;DHT22;40800;52.704;6.398;2022-09-16T06:27:43;11.10;99.90
54898;DHT22;40800;52.704;6.398;2022-09-16T06:30:08;11.20;99.90
54898;DHT22;40800;52.704;6.398;2022-09-16T06:32:34;11.10;99.90
54898;DHT22;40800;52.704;6.398;2022-09-16T06:35:00;11.10;99.90
54898;DHT22;40800;52.704;6.398;2022-09-16T06:37:25;11.20;99.90
54898;DHT22;40800;52.704;6.398;2022-09-16T06:39:51;11.20;99.90
54898;DHT22;40800;52.704;6.398;2022-09-16T06:42:16;11.30;99.90
54898;DHT22;40800;52.704;6.398;2022-09-16T06:44:42;11.40;99.90
54898;DHT22;40800;52.704;6.398;2022-09-16T06:47:08;11.50;99.90
54898;DHT22;40800;52.704;6.398;2022-09-16T06:49:34;11.40;99.90
54898;DHT22;40800;52.704;6.398;2022-09-16T06:51:59;11.60;99.90
54898;DHT22;40800;52.704;6.398;2022-09-16T06:54:25;11.60;99.90
54898;DHT22;40800;52.704;6.398;2022-09-16T06:56:51;11.90;99.90
54898;DHT22;40800;52.704;6.398;2022-09-16T06:59:16;11.90;99.90
54898;DHT22;40800;52.704;6.398;2022-09-16T07:01:42;12.00;99.90
54898;DHT22;40800;52.704;6.398;2022-09-16T07:04:09;12.00;99.90
54898;DHT22;40800;52.704;6.398;2022-09-16T07:06:35;12.20;99.90
54898;DHT22;40800;52.704;6.398;2022-09-16T07:09:02;12.10;99.90
54898;DHT22;40800;52.704;6.398;2022-09-16T07:11:28;12.30;99.90
54898;DHT22;40800;52.704;6.398;2022-09-16T07:13:54;12.30;99.90
54898;DHT22;40800;52.704;6.398;2022-09-16T07:16:24;12.60;99.90
54898;DHT22;40800;52.704;6.398;2022-09-16T07:18:54;12.60;99.90
54898;DHT22;40800;52.704;6.398;2022-09-16T07:21:22;12.70;99.90
54898;DHT22;40800;52.704;6.398;2022-09-16T07:23:50;12.80;99.90
54898;DHT22;40800;52.704;6.398;2022-09-16T07:26:18;12.70;99.90
54898;DHT22;40800;52.704;6.398;2022-09-16T07:28:46;12.90;99.90
54898;DHT22;40800;52.704;6.398;2022-09-16T07:31:14;13.00;99.90
54898;DHT22;40800;52.704;6.398;2022-09-16T07:33:45;12.90;99.90
54898;DHT22;40800;52.704;6.398;2022-09-16T07:36:14;13.00;99.90
54898;DHT22;40800;52.704;6.398;2022-09-16T07:38:40;13.00;99.90
54898;DHT22;40800;52.704;6.398;2022-09-16T07:41:14;13.20;99.90
54898;DHT22;40800;52.704;6.398;2022-09-16T07:43:41;13.30;99.90
54898;DHT22;40800;52.704;6.398;2022-09-16T07:46:08;13.50;99.90
54898;DHT22;40800;52.704;6.398;2022-09-16T07:48:35;13.50;99.90
54898;DHT22;40800;52.704;6.398;2022-09-16T07:51:04;13.50;99.90
54898;DHT22;40800;52.704;6.398;2022-09-16T07:53:31;13.60;99.90
54898;DHT22;40800;52.704;6.398;2022-09-16T07:56:05;13.70;99.90
54898;DHT22;40800;52.704;6.398;2022-09-16T07:58:31;13.80;99.90
54898;DHT22;40800;52.704;6.398;2022-09-16T08:00:57;13.80;99.90
54898;DHT22;40800;52.704;6.398;2022-09-16T08:03:22;13.70;99.90
54898;DHT22;40800;52.704;6.398;2022-09-16T08:05:48;13.80;99.90
54898;DHT22;40800;52.704;6.398;2022-09-16T08:08:14;14.10;99.90
54898;DHT22;40800;52.704;6.398;2022-09-16T08:10:40;14.10;99.90
54898;DHT22;40800;52.704;6.398;2022-09-16T08:13:07;14.20;99.90
54898;DHT22;40800;52.704;6.398;2022-09-16T08:15:33;14.40;99.90
54898;DHT22;40800;52.704;6.398;2022-09-16T08:17:58;14.50;99.90
54898;DHT22;40800;52.704;6.398;2022-09-16T08:20:24;14.60;99.90
54898;DHT22;40800;52.704;6.398;2022-09-16T08:22:51;14.60;99.90
54898;DHT22;40800;52.704;6.398;2022-09-16T08:25:17;14.60;99.90
54898;DHT22;40800;52.704;6.398;2022-09-16T08:27:43;14.80;99.90
54898;DHT22;40800;52.704;6.398;2022-09-16T08:30:09;14.90;99.90
54898;DHT22;40800;52.704;6.398;2022-09-16T08:32:35;14.80;99.90
54898;DHT22;40800;52.704;6.398;2022-09-16T08:35:01;14.80;99.90
54898;DHT22;40800;52.704;6.398;2022-09-16T08:37:26;14.90;99.90
54898;DHT22;40800;52.704;6.398;2022-09-16T08:39:52;15.00;99.90
54898;DHT22;40800;52.704;6.398;2022-09-16T08:50:25;15.40;99.90
54898;DHT22;40800;52.704;6.398;2022-09-16T08:52:52;15.30;99.90
54898;DHT22;40800;52.704;6.398;2022-09-16T08:55:25;15.60;99.90
54898;DHT22;40800;52.704;6.398;2022-09-16T09:01:09;15.70;99.90
54898;DHT22;40800;52.704;6.398;2022-09-16T09:03:40;15.80;99.90
54898;DHT22;40800;52.704;6.398;2022-09-16T09:09:32;16.10;99.90
54898;DHT22;40800;52.704;6.398;2022-09-16T09:12:20;16.10;99.90
54898;DHT22;40800;52.704;6.398;2022-09-16T09:15:28;15.80;99.90
54898;DHT22;40800;52.704;6.398;2022-09-16T09:18:16;15.90;99.90
54898;DHT22;40800;52.704;6.398;2022-09-16T09:24:21;16.10;99.90
54898;DHT22;40800;52.704;6.398;2022-09-16T09:27:12;16.10;99.90
54898;DHT22;40800;52.704;6.398;2022-09-16T09:40:56;16.80;99.90
54898;DHT22;40800;52.704;6.398;2022-09-16T09:43:46;16.90;99.90
54898;DHT22;40800;52.704;6.398;2022-09-16T09:46:16;16.90;99.90
54898;DHT22;40800;52.704;6.398;2022-09-16T09:48:59;16.90;99.90
54898;DHT22;40800;52.704;6.398;2022-09-16T09:51:34;17.20;99.90
54898;DHT22;40800;52.704;6.398;2022-09-16T09:57:02;17.40;99.90
54898;DHT22;40800;52.704;6.398;2022-09-16T10:02:16;16.50;99.90
54898;DHT22;40800;52.704;6.398;2022-09-16T10:04:42;16.40;99.90
54898;DHT22;40800;52.704;6.398;2022-09-16T10:07:08;15.90;99.90
54898;DHT22;40800;52.704;6.398;2022-09-16T10:09:35;15.80;99.90
54898;DHT22;40800;52.704;6.398;2022-09-16T10:12:09;16.20;99.90
54898;DHT22;40800;52.704;6.398;2022-09-16T10:14:36;16.50;99.90
54898;DHT22;40800;52.704;6.398;2022-09-16T10:17:14;16.80;99.90
54898;DHT22;40800;52.704;6.398;2022-09-16T10:19:56;17.10;99.90
54898;DHT22;40800;52.704;6.398;2022-09-16T10:22:28;17.10;99.90
54898;DHT22;40800;52.704;6.398;2022-09-16T10:25:00;17.10;99.90
54898;DHT22;40800;52.704;6.398;2022-09-16T10:27:31;17.10;99.90
54898;DHT22;40800;52.704;6.398;2022-09-16T10:32:28;17.10;99.90
54898;DHT22;40800;52.704;6.398;2022-09-16T10:34:55;17.20;99.90
54898;DHT22;40800;52.704;6.398;2022-09-16T10:37:21;17.30;99.90
54898;DHT22;40800;52.704;6.398;2022-09-16T10:39:52;17.20;99.90
54898;DHT22;40800;52.704;6.398;2022-09-16T10:42:26;16.90;99.90
54898;DHT22;40800;52.704;6.398;2022-09-16T10:44:56;16.40;99.90
54898;DHT22;40800;52.704;6.398;2022-09-16T10:47:31;16.40;99.90
54898;DHT22;40800;52.704;6.398;2022-09-16T10:50:00;16.80;99.90
54898;DHT22;40800;52.704;6.398;2022-09-16T10:52:29;17.30;99.90
54898;DHT22;40800;52.704;6.398;2022-09-16T10:54:56;17.60;99.90
54898;DHT22;40800;52.704;6.398;2022-09-16T10:57:30;17.80;99.90
54898;DHT22;40800;52.704;6.398;2022-09-16T11:10:58;17.40;99.90
54898;DHT22;40800;52.704;6.398;2022-09-16T11:13:35;17.30;99.90
54898;DHT22;40800;52.704;6.398;2022-09-16T11:16:23;17.20;99.90
54898;DHT22;40800;52.704;6.398;2022-09-16T11:30:18;18.10;99.90
54898;DHT22;40800;52.704;6.398;2022-09-16T11:41:49;18.50;99.90
54898;DHT22;40800;52.704;6.398;2022-09-16T11:49:57;18.50;99.90
54898;DHT22;40800;52.704;6.398;2022-09-16T11:52:45;18.50;99.90
54898;DHT22;40800;52.704;6.398;2022-09-16T11:55:37;18.50;99.90
54898;DHT22;40800;52.704;6.398;2022-09-16T11:58:20;18.30;99.90
54898;DHT22;40800;52.704;6.398;2022-09-16T12:00:48;17.70;99.90
54898;DHT22;40800;52.704;6.398;2022-09-16T12:06:14;18.30;99.90
54898;DHT22;40800;52.704;6.398;2022-09-16T12:11:27;18.90;99.90
54898;DHT22;40800;52.704;6.398;2022-09-16T12:14:12;19.00;99.90
54898;DHT22;40800;52.704;6.398;2022-09-16T12:16:47;19.10;99.90
54898;DHT22;40800;52.704;6.398;2022-09-16T12:21:59;18.60;99.90
54898;DHT22;40800;52.704;6.398;2022-09-16T12:24:35;18.40;99.90
54898;DHT22;40800;52.704;6.398;2022-09-16T12:29:46;18.20;99.90
54898;DHT22;40800;52.704;6.398;2022-09-16T12:32:18;16.70;99.90
54898;DHT22;40800;52.704;6.398;2022-09-16T12:34:58;16.10;99.90
54898;DHT22;40800;52.704;6.398;2022-09-16T12:37:48;15.80;99.90
54898;DHT22;40800;52.704;6.398;2022-09-16T12:40:21;16.30;99.90
54898;DHT22;40800;52.704;6.398;2022-09-16T12:59:01;17.40;99.90
54898;DHT22;40800;52.704;6.398;2022-09-16T13:01:43;17.70;99.90
54898;DHT22;40800;52.704;6.398;2022-09-16T13:04:18;18.10;99.90
54898;DHT22;40800;52.704;6.398;2022-09-16T13:06:49;18.80;99.90
54898;DHT22;40800;52.704;6.398;2022-09-16T13:11:58;19.00;99.90
54898;DHT22;40800;52.704;6.398;2022-09-16T13:14:41;18.60;99.90
54898;DHT22;40800;52.704;6.398;2022-09-16T13:17:09;18.30;99.90
54898;DHT22;40800;52.704;6.398;2022-09-16T13:20:13;18.00;99.90
54898;DHT22;40800;52.704;6.398;2022-09-16T13:22:45;18.00;99.90
54898;DHT22;40800;52.704;6.398;2022-09-16T13:27:39;18.10;99.90
54898;DHT22;40800;52.704;6.398;2022-09-16T13:30:35;17.80;99.90
54898;DHT22;40800;52.704;6.398;2022-09-16T13:33:22;18.20;99.90
54898;DHT22;40800;52.704;6.398;2022-09-16T13:36:01;18.90;99.90
54898;DHT22;40800;52.704;6.398;2022-09-16T13:38:38;19.90;99.90
54898;DHT22;40800;52.704;6.398;2022-09-16T13:41:05;20.10;99.90
54898;DHT22;40800;52.704;6.398;2022-09-16T13:46:32;20.00;99.90
54898;DHT22;40800;52.704;6.398;2022-09-16T13:51:38;19.40;92.40
54898;DHT22;40800;52.704;6.398;2022-09-16T13:54:18;18.90;99.90
54898;DHT22;40800;52.704;6.398;2022-09-16T14:13:16;18.70;99.90
54898;DHT22;40800;52.704;6.398;2022-09-16T14:15:57;18.60;99.90
54898;DHT22;40800;52.704;6.398;2022-09-16T14:18:29;18.80;99.90
54898;DHT22;40800;52.704;6.398;2022-09-16T14:21:04;19.40;99.90
54898;DHT22;40800;52.704;6.398;2022-09-16T14:23:31;19.50;99.90
54898;DHT22;40800;52.704;6.398;2022-09-16T14:26:12;19.40;96.40
54898;DHT22;40800;52.704;6.398;2022-09-16T14:28:38;19.10;99.90
54898;DHT22;40800;52.704;6.398;2022-09-16T14:31:07;18.80;99.90
54898;DHT22;40800;52.704;6.398;2022-09-16T14:33:34;18.80;99.90
54898;DHT22;40800;52.704;6.398;2022-09-16T14:36:06;18.60;99.70
54898;DHT22;40800;52.704;6.398;2022-09-16T14:38:36;19.00;99.90
54898;DHT22;40800;52.704;6.398;2022-09-16T14:41:08;18.60;99.30
54898;DHT22;40800;52.704;6.398;2022-09-16T14:43:36;18.80;99.90
54898;DHT22;40800;52.704;6.398;2022-09-16T14:46:05;18.70;99.90
54898;DHT22;40800;52.704;6.398;2022-09-16T14:48:34;18.60;99.70
54898;DHT22;40800;52.704;6.398;2022-09-16T14:51:02;17.70;99.90
54898;DHT22;40800;52.704;6.398;2022-09-16T14:53:30;17.80;99.90
54898;DHT22;40800;52.704;6.398;2022-09-16T14:55:57;17.20;99.90
54898;DHT22;40800;52.704;6.398;2022-09-16T14:58:25;16.70;99.90
54898;DHT22;40800;52.704;6.398;2022-09-16T15:06:21;16.90;99.90
54898;DHT22;40800;52.704;6.398;2022-09-16T15:09:05;16.70;99.90
54898;DHT22;40800;52.704;6.398;2022-09-16T15:11:35;16.70;99.90
54898;DHT22;40800;52.704;6.398;2022-09-16T15:14:08;16.40;99.90
54898;DHT22;40800;52.704;6.398;2022-09-16T15:16:40;16.80;99.90
54898;DHT22;40800;52.704;6.398;2022-09-16T15:19:18;17.00;99.90
54898;DHT22;40800;52.704;6.398;2022-09-16T15:21:46;17.00;99.90
54898;DHT22;40800;52.704;6.398;2022-09-16T15:24:27;16.80;99.90
54898;DHT22;40800;52.704;6.398;2022-09-16T15:26:56;16.50;99.90
54898;DHT22;40800;52.704;6.398;2022-09-16T15:29:27;16.40;99.90
54898;DHT22;40800;52.704;6.398;2022-09-16T15:31:54;16.40;99.90
54898;DHT22;40800;52.704;6.398;2022-09-16T15:34:30;16.30;99.90
54898;DHT22;40800;52.704;6.398;2022-09-16T15:36:57;16.40;99.90
54898;DHT22;40800;52.704;6.398;2022-09-16T15:39:31;16.40;99.90
54898;DHT22;40800;52.704;6.398;2022-09-16T15:42:21;16.50;99.90
54898;DHT22;40800;52.704;6.398;2022-09-16T15:44:49;16.10;99.90
54898;DHT22;40800;52.704;6.398;2022-09-16T15:47:28;15.90;99.90
54898;DHT22;40800;52.704;6.398;2022-09-16T15:50:06;15.30;99.90
54898;DHT22;40800;52.704;6.398;2022-09-16T15:52:57;15.00;99.90
54898;DHT22;40800;52.704;6.398;2022-09-16T15:55:53;14.60;99.90
54898;DHT22;40800;52.704;6.398;2022-09-16T15:58:36;14.10;99.90
54898;DHT22;40800;52.704;6.398;2022-09-16T16:01:18;13.90;99.90
54898;DHT22;40800;52.704;6.398;2022-09-16T16:03:54;13.20;99.90
54898;DHT22;40800;52.704;6.398;2022-09-16T16:11:54;12.70;99.90
54898;DHT22;40800;52.704;6.398;2022-09-16T16:14:22;12.60;99.90
54898;DHT22;40800;52.704;6.398;2022-09-16T16:16:49;12.60;99.90
54898;DHT22;40800;52.704;6.398;2022-09-16T16:19:16;12.40;99.90
54898;DHT22;40800;52.704;6.398;2022-09-16T16:21:42;12.40;99.90
54898;DHT22;40800;52.704;6.398;2022-09-16T16:24:11;12.30;99.90
54898;DHT22;40800;52.704;6.398;2022-09-16T16:26:36;12.20;99.90
54898;DHT22;40800;52.704;6.398;2022-09-16T16:29:02;12.20;99.90
54898;DHT22;40800;52.704;6.398;2022-09-16T16:31:27;12.30;99.90
54898;DHT22;40800;52.704;6.398;2022-09-16T16:33:53;12.20;99.90
54898;DHT22;40800;52.704;6.398;2022-09-16T16:36:19;12.30;99.90
54898;DHT22;40800;52.704;6.398;2022-09-16T16:38:46;12.20;99.90
54898;DHT22;40800;52.704;6.398;2022-09-16T16:41:19;12.30;99.90
54898;DHT22;40800;52.704;6.398;2022-09-16T16:43:45;12.40;99.90
54898;DHT22;40800;52.704;6.398;2022-09-16T16:46:10;12.80;99.90
54898;DHT22;40800;52.704;6.398;2022-09-16T16:48:36;12.20;99.90
54898;DHT22;40800;52.704;6.398;2022-09-16T16:51:05;12.40;99.90
54898;DHT22;40800;52.704;6.398;2022-09-16T16:53:33;12.20;99.90
54898;DHT22;40800;52.704;6.398;2022-09-16T16:56:10;12.30;99.90
54898;DHT22;40800;52.704;6.398;2022-09-16T16:58:37;12.30;99.90
54898;DHT22;40800;52.704;6.398;2022-09-16T17:01:11;12.30;99.90
54898;DHT22;40800;52.704;6.398;2022-09-16T17:03:38;12.10;99.90
54898;DHT22;40800;52.704;6.398;2022-09-16T17:06:04;12.40;99.90
54898;DHT22;40800;52.704;6.398;2022-09-16T17:08:32;12.10;99.90
54898;DHT22;40800;52.704;6.398;2022-09-16T17:11:24;12.10;99.90
54898;DHT22;40800;52.704;6.398;2022-09-16T17:13:52;12.00;99.90
54898;DHT22;40800;52.704;6.398;2022-09-16T17:16:20;12.40;99.90
54898;DHT22;40800;52.704;6.398;2022-09-16T17:18:46;12.00;99.90
54898;DHT22;40800;52.704;6.398;2022-09-16T17:21:23;12.00;99.90
54898;DHT22;40800;52.704;6.398;2022-09-16T17:23:49;11.80;99.90
54898;DHT22;40800;52.704;6.398;2022-09-16T17:26:16;11.90;99.90
54898;DHT22;40800;52.704;6.398;2022-09-16T17:28:44;12.00;99.90
54898;DHT22;40800;52.704;6.398;2022-09-16T17:33:38;11.80;99.90
54898;DHT22;40800;52.704;6.398;2022-09-16T17:36:06;11.90;99.90
54898;DHT22;40800;52.704;6.398;2022-09-16T17:38:33;11.90;99.90
54898;DHT22;40800;52.704;6.398;2022-09-16T17:41:13;11.80;99.90
54898;DHT22;40800;52.704;6.398;2022-09-16T17:43:39;11.80;99.90
54898;DHT22;40800;52.704;6.398;2022-09-16T17:46:11;11.90;99.90
54898;DHT22;40800;52.704;6.398;2022-09-16T17:48:37;11.80;99.90
54898;DHT22;40800;52.704;6.398;2022-09-16T17:51:03;12.10;99.90
54898;DHT22;40800;52.704;6.398;2022-09-16T17:53:29;11.80;99.90
54898;DHT22;40800;52.704;6.398;2022-09-16T17:56:05;11.90;99.90
54898;DHT22;40800;52.704;6.398;2022-09-16T17:58:32;12.00;99.90
54898;DHT22;40800;52.704;6.398;2022-09-16T18:01:11;11.90;99.90
54898;DHT22;40800;52.704;6.398;2022-09-16T18:03:38;12.00;99.90
54898;DHT22;40800;52.704;6.398;2022-09-16T18:06:10;11.80;99.90
54898;DHT22;40800;52.704;6.398;2022-09-16T18:08:37;11.70;99.90
54898;DHT22;40800;52.704;6.398;2022-09-16T18:11:04;11.90;99.90
54898;DHT22;40800;52.704;6.398;2022-09-16T18:13:30;11.70;99.90
54898;DHT22;40800;52.704;6.398;2022-09-16T18:16:10;11.70;99.90
54898;DHT22;40800;52.704;6.398;2022-09-16T18:18:38;11.70;99.90
54898;DHT22;40800;52.704;6.398;2022-09-16T18:21:06;11.70;99.90
54898;DHT22;40800;52.704;6.398;2022-09-16T18:23:32;11.60;99.90
54898;DHT22;40800;52.704;6.398;2022-09-16T18:26:03;11.80;99.90
54898;DHT22;40800;52.704;6.398;2022-09-16T18:28:29;11.70;99.90
54898;DHT22;40800;52.704;6.398;2022-09-16T18:31:06;11.50;99.90
54898;DHT22;40800;52.704;6.398;2022-09-16T18:33:32;11.60;99.90
54898;DHT22;40800;52.704;6.398;2022-09-16T18:36:03;11.60;99.90
54898;DHT22;40800;52.704;6.398;2022-09-16T18:38:30;11.80;99.90
54898;DHT22;40800;52.704;6.398;2022-09-16T18:41:13;11.70;99.90
54898;DHT22;40800;52.704;6.398;2022-09-16T18:43:41;11.90;99.90
54898;DHT22;40800;52.704;6.398;2022-09-16T18:46:11;12.00;99.90
54898;DHT22;40800;52.704;6.398;2022-09-16T18:48:37;12.00;99.90
54898;DHT22;40800;52.704;6.398;2022-09-16T18:51:03;12.20;99.90